createdAt,value
2019-04-28T00:01:48.498Z,101074.19
2019-04-28T00:07:07.395Z,101067.33
2019-04-28T00:09:37.344Z,101066.52
2019-04-28T00:12:07.578Z,101070.58
2019-04-28T00:14:37.528Z,101065.89
2019-04-28T00:17:08.148Z,101065.69
2019-04-28T00:19:37.933Z,101069.86
2019-04-28T00:22:16.817Z,101065.69
2019-04-28T00:24:54.778Z,101063.28
2019-04-28T00:27:24.830Z,101066.84
2019-04-28T00:29:54.861Z,101064.84
2019-04-28T00:32:24.854Z,101063.59
2019-04-28T00:34:55.078Z,101062.63
2019-04-28T00:37:43.054Z,101065.77
2019-04-28T00:40:14.115Z,101061.61
2019-04-28T00:42:43.908Z,101062.70
2019-04-28T00:45:14.669Z,101065.45
2019-04-28T00:47:44.615Z,101062.20
2019-04-28T00:50:14.508Z,101066.89
2019-04-28T00:52:44.903Z,101065.14
2019-04-28T00:55:14.880Z,101064.14
2019-04-28T00:57:44.815Z,101071.39
2019-04-28T01:00:16.759Z,101065.74
2019-04-28T01:02:46.764Z,101065.47
2019-04-28T01:05:17.114Z,101070.67
2019-04-28T01:07:47.369Z,101071.40
2019-04-28T01:10:18.148Z,101070.31
2019-04-28T01:12:48.133Z,101066.95
2019-04-28T01:15:27.014Z,101064.30
2019-04-28T01:18:10.472Z,101063.30
2019-04-28T01:20:40.400Z,101065.14
2019-04-28T01:23:10.466Z,101062.62
2019-04-28T01:25:40.510Z,101066.72
2019-04-28T01:28:10.462Z,101064.23
2019-04-28T01:31:14.672Z,101062.43
2019-04-28T01:34:04.424Z,101067.84
2019-04-28T01:36:36.251Z,101066.16
2019-04-28T01:39:07.609Z,101064.35
2019-04-28T01:41:39.763Z,101066.31
2019-04-28T01:44:10.387Z,101073.40
2019-04-28T01:46:40.551Z,101074.60
2019-04-28T01:49:10.502Z,101081.09
2019-04-28T01:51:41.582Z,101076.28
2019-04-28T01:54:11.883Z,101081.45
2019-04-28T01:56:42.717Z,101077.84
2019-04-28T01:59:12.653Z,101079.26
2019-04-28T02:01:42.590Z,101078.05
2019-04-28T02:04:12.545Z,101078.92
2019-04-28T02:06:42.486Z,101072.44
2019-04-28T02:09:12.655Z,101080.97
2019-04-28T02:11:42.590Z,101079.17
2019-04-28T02:14:12.746Z,101082.66
2019-04-28T02:16:42.912Z,101074.57
2019-04-28T02:19:12.915Z,101083.41
2019-04-28T02:22:00.622Z,101082.56
2019-04-28T02:24:37.398Z,101091.06
2019-04-28T02:27:07.777Z,101091.33
2019-04-28T02:29:37.769Z,101082.77
2019-04-28T02:32:12.227Z,101086.73
2019-04-28T02:34:42.225Z,101093.25
2019-04-28T02:37:12.197Z,101089.86
2019-04-28T02:39:42.526Z,101090.58
2019-04-28T02:42:12.455Z,101089.98
2019-04-28T02:44:42.433Z,101089.39
2019-04-28T02:47:12.381Z,101091.18
2019-04-28T02:50:05.776Z,101089.02
2019-04-28T02:52:53.346Z,101087.45
2019-04-28T02:55:23.700Z,101093.95
2019-04-28T02:57:53.687Z,101097.67
2019-04-28T03:00:23.655Z,101096.10
2019-04-28T03:02:53.613Z,101095.73
2019-04-28T03:05:23.669Z,101090.09
2019-04-28T03:07:53.601Z,101091.79
2019-04-28T03:10:23.609Z,101095.01
2019-04-28T03:12:53.546Z,101104.39
2019-04-28T03:15:23.501Z,101091.89
2019-04-28T03:17:54.534Z,101094.66
2019-04-28T03:20:24.477Z,101097.44
2019-04-28T03:22:54.869Z,101095.73
2019-04-28T03:25:33.519Z,101103.53
2019-04-28T03:28:21.487Z,101097.29
2019-04-28T03:31:59.190Z,101102.82
2019-04-28T03:33:55.913Z,101102.80
2019-04-28T03:36:27.091Z,101106.30
2019-04-28T03:38:57.023Z,101108.45
2019-04-28T03:41:26.973Z,101105.23
2019-04-28T03:43:56.866Z,101106.08
2019-04-28T03:46:30.411Z,101106.08
2019-04-28T03:49:00.914Z,101109.55
2019-04-28T03:51:31.169Z,101108.60
2019-04-28T03:54:03.006Z,101106.80
2019-04-28T03:56:32.597Z,101102.70
2019-04-28T03:59:02.577Z,101105.84
2019-04-28T04:01:32.497Z,101105.59
2019-04-28T04:04:03.612Z,101113.75
2019-04-28T04:06:34.914Z,101107.89
2019-04-28T04:09:05.638Z,101107.63
2019-04-28T04:11:41.832Z,101114.50
2019-04-28T04:14:30.983Z,101106.08
2019-04-28T04:17:12.035Z,101110.41
2019-04-28T04:19:42.877Z,101115.78
2019-04-28T04:22:14.124Z,101107.72
2019-04-28T04:24:43.998Z,101115.28
2019-04-28T04:27:13.868Z,101111.69
2019-04-28T04:29:43.813Z,101112.28
2019-04-28T04:32:22.760Z,101114.44
2019-04-28T04:34:45.583Z,101114.81
2019-04-28T04:37:15.546Z,101116.60
2019-04-28T04:39:45.426Z,101116.72
2019-04-28T04:42:15.384Z,101123.70
2019-04-28T04:44:45.201Z,101125.89
2019-04-28T04:47:15.171Z,101131.27
2019-04-28T04:49:46.385Z,101130.56
2019-04-28T04:52:16.319Z,101133.07
2019-04-28T04:54:46.221Z,101138.14
2019-04-28T04:57:16.417Z,101140.52
2019-04-28T04:59:46.349Z,101143.05
2019-04-28T05:02:33.111Z,101147.26
2019-04-28T05:05:08.254Z,101154.00
2019-04-28T05:07:39.633Z,101155.06
2019-04-28T05:10:10.593Z,101154.12
2019-04-28T05:12:40.530Z,101158.92
2019-04-28T05:15:10.594Z,101165.06
2019-04-28T05:17:40.463Z,101163.02
2019-04-28T05:20:10.785Z,101166.50
2019-04-28T05:22:47.799Z,101168.30
2019-04-28T05:25:29.263Z,101160.48
2019-04-28T05:28:02.788Z,101166.39
2019-04-28T05:30:34.767Z,101171.08
2019-04-28T05:33:03.085Z,101167.70
2019-04-28T05:35:35.679Z,101165.71
2019-04-28T05:38:05.320Z,101176.73
2019-04-28T05:40:35.200Z,101175.41
2019-04-28T05:43:05.195Z,101177.05
2019-04-28T05:45:35.116Z,101173.45
2019-04-28T05:48:05.085Z,101178.88
2019-04-28T05:50:43.971Z,101175.27
2019-04-28T05:53:21.765Z,101179.60
2019-04-28T05:56:02.346Z,101178.39
2019-04-28T05:58:47.802Z,101181.40
2019-04-28T06:01:27.674Z,101180.33
2019-04-28T06:03:57.556Z,101180.81
2019-04-28T06:06:30.502Z,101185.84
2019-04-28T06:09:25.663Z,101180.06
2019-04-28T06:11:55.644Z,101184.52
2019-04-28T06:14:25.835Z,101186.94
2019-04-28T06:16:55.797Z,101189.08
2019-04-28T06:19:25.967Z,101186.30
2019-04-28T06:21:55.854Z,101193.14
2019-04-28T06:24:25.823Z,101193.03
2019-04-28T06:26:55.775Z,101189.80
2019-04-28T06:29:25.937Z,101194.70
2019-04-28T06:31:55.816Z,101193.13
2019-04-28T06:34:25.680Z,101200.23
2019-04-28T06:36:55.909Z,101199.75
2019-04-28T06:39:26.209Z,101202.64
2019-04-28T06:41:56.081Z,101203.86
2019-04-28T06:44:26.074Z,101213.59
2019-04-28T06:46:56.029Z,101208.33
2019-04-28T06:49:25.976Z,101215.30
2019-04-28T06:51:55.970Z,101211.68
2019-04-28T06:54:25.902Z,101215.88
2019-04-28T06:56:56.211Z,101217.92
2019-04-28T06:59:26.165Z,101220.20
2019-04-28T07:01:56.391Z,101222.25
2019-04-28T07:04:26.367Z,101222.14
2019-04-28T07:06:56.353Z,101221.43
2019-04-28T07:09:26.539Z,101221.43
2019-04-28T07:11:56.913Z,101229.97
2019-04-28T07:14:26.788Z,101222.98
2019-04-28T07:16:56.556Z,101226.95
2019-04-28T07:19:27.558Z,101219.72
2019-04-28T07:22:03.671Z,101229.93
2019-04-28T07:24:33.964Z,101226.53
2019-04-28T07:27:05.869Z,101231.94
2019-04-28T07:29:36.092Z,101234.08
2019-04-28T07:32:06.149Z,101228.07
2019-04-28T07:34:35.923Z,101225.17
2019-04-28T07:37:05.875Z,101219.30
2019-04-28T07:39:35.870Z,101225.31
2019-04-28T07:42:06.072Z,101223.99
2019-04-28T07:44:36.042Z,101224.83
2019-04-28T07:47:06.028Z,101221.71
2019-04-28T07:49:35.925Z,101227.75
2019-04-28T07:52:30.808Z,101235.55
2019-04-28T07:55:01.750Z,101238.20
2019-04-28T07:57:32.394Z,101239.52
2019-04-28T08:00:03.894Z,101236.92
2019-04-28T08:02:35.489Z,101242.98
2019-04-28T08:05:05.933Z,101248.63
2019-04-28T08:07:35.893Z,101247.77
2019-04-28T08:10:07.098Z,101248.86
2019-04-28T08:12:36.916Z,101247.54
2019-04-28T08:15:06.976Z,101246.11
2019-04-28T08:17:36.932Z,101252.13
2019-04-28T08:20:06.861Z,101251.63
2019-04-28T08:22:36.829Z,101253.55
2019-04-28T08:25:07.126Z,101250.20
2019-04-28T08:27:36.988Z,101243.59
2019-04-28T08:30:07.089Z,101242.75
2019-04-28T08:33:08.693Z,101245.75
2019-04-28T08:35:38.670Z,101246.09
2019-04-28T08:38:08.536Z,101250.42
2019-04-28T08:40:38.859Z,101255.36
2019-04-28T08:43:08.787Z,101258.25
2019-04-28T08:45:38.800Z,101253.20
2019-04-28T08:48:08.757Z,101253.92
2019-04-28T08:50:39.560Z,101256.45
2019-04-28T08:53:09.781Z,101259.33
2019-04-28T08:55:39.965Z,101257.52
2019-04-28T08:58:10.167Z,101260.78
2019-04-28T09:00:40.113Z,101262.59
2019-04-28T09:03:10.096Z,101266.80
2019-04-28T09:05:40.409Z,101269.19
2019-04-28T09:08:10.983Z,101269.91
2019-04-28T09:10:41.914Z,101266.43
2019-04-28T09:13:11.943Z,101266.55
2019-04-28T09:15:41.878Z,101265.69
2019-04-28T09:18:11.766Z,101271.47
2019-04-28T09:20:42.122Z,101272.31
2019-04-28T09:23:12.125Z,101266.88
2019-04-28T09:25:41.989Z,101266.39
2019-04-28T09:28:11.848Z,101271.17
2019-04-28T09:30:43.077Z,101275.98
2019-04-28T09:33:13.107Z,101275.39
2019-04-28T09:35:43.210Z,101278.23
2019-04-28T09:38:13.098Z,101280.64
2019-04-28T09:40:43.324Z,101286.78
2019-04-28T09:43:21.128Z,101291.00
2019-04-28T09:45:56.531Z,101290.43
2019-04-28T09:48:26.736Z,101297.09
2019-04-28T09:50:57.009Z,101289.86
2019-04-28T09:53:27.913Z,101298.01
2019-04-28T09:55:57.916Z,101290.56
2019-04-28T09:58:27.849Z,101294.14
2019-04-28T10:00:57.860Z,101289.11
2019-04-28T10:03:30.665Z,101294.27
2019-04-28T10:05:59.514Z,101296.70
2019-04-28T10:08:29.501Z,101295.36
2019-04-28T10:10:59.551Z,101294.52
2019-04-28T10:13:29.742Z,101296.57
2019-04-28T10:16:00.055Z,101291.41
2019-04-28T10:18:29.977Z,101296.08
2019-04-28T10:21:00.233Z,101297.54
2019-04-28T10:23:30.472Z,101290.71
2019-04-28T10:26:00.422Z,101293.73
2019-04-28T10:28:30.707Z,101287.70
2019-04-28T10:31:00.698Z,101291.67
2019-04-28T10:33:30.852Z,101290.61
2019-04-28T10:36:00.751Z,101285.06
2019-04-28T10:38:30.572Z,101288.55
2019-04-28T10:41:07.557Z,101284.59
2019-04-28T10:43:37.498Z,101285.08
2019-04-28T10:46:07.499Z,101283.48
2019-04-28T10:48:37.564Z,101275.42
2019-04-28T10:51:07.816Z,101281.64
2019-04-28T10:53:38.258Z,101284.53
2019-04-28T10:56:08.412Z,101293.56
2019-04-28T10:58:40.669Z,101287.63
2019-04-28T11:01:10.618Z,101279.91
2019-04-28T11:03:41.483Z,101286.17
2019-04-28T11:06:12.717Z,101278.81
2019-04-28T11:09:03.400Z,101277.32
2019-04-28T11:11:36.105Z,101278.64
2019-04-28T11:14:06.101Z,101280.20
2019-04-28T11:16:36.529Z,101275.52
2019-04-28T11:19:07.658Z,101292.44
2019-04-28T11:21:38.171Z,101282.13
2019-04-28T11:24:08.630Z,101289.52
2019-04-28T11:26:38.870Z,101290.48
2019-04-28T11:29:09.003Z,101286.86
2019-04-28T11:31:38.932Z,101282.07
2019-04-28T11:34:17.438Z,101276.38
2019-04-28T11:36:47.463Z,101271.44
2019-04-28T11:39:22.615Z,101275.45
2019-04-28T11:41:52.596Z,101280.63
2019-04-28T11:44:22.993Z,101282.66
2019-04-28T11:46:54.333Z,101284.00
2019-04-28T11:49:25.316Z,101283.27
2019-04-28T11:51:55.581Z,101282.52
2019-04-28T11:54:25.793Z,101276.30
2019-04-28T11:56:55.755Z,101277.14
2019-04-28T11:59:25.928Z,101280.19
2019-04-28T12:01:55.964Z,101284.75
2019-04-28T12:04:26.935Z,101272.45
2019-04-28T12:06:56.872Z,101275.81
2019-04-28T12:09:44.491Z,101282.58
2019-04-28T12:12:31.100Z,101285.88
2019-04-28T12:15:12.079Z,101280.03
2019-04-28T12:17:52.979Z,101284.45
2019-04-28T12:20:24.113Z,101279.51
2019-04-28T12:22:53.997Z,101285.53
2019-04-28T12:25:23.931Z,101279.31
2019-04-28T12:27:54.208Z,101288.09
2019-04-28T12:30:24.496Z,101284.27
2019-04-28T12:32:54.428Z,101290.13
2019-04-28T12:35:24.740Z,101287.34
2019-04-28T12:37:54.680Z,101289.70
2019-04-28T12:40:24.608Z,101289.64
2019-04-28T12:42:54.479Z,101293.63
2019-04-28T12:45:34.877Z,101298.44
2019-04-28T12:48:07.041Z,101303.75
2019-04-28T12:50:45.810Z,101302.06
2019-04-28T12:53:15.755Z,101303.30
2019-04-28T12:55:45.723Z,101306.20
2019-04-28T12:58:15.684Z,101305.63
2019-04-28T13:01:08.230Z,101323.08
2019-04-28T13:03:43.331Z,101321.94
2019-04-28T13:06:16.116Z,101323.66
2019-04-28T13:08:46.234Z,101329.34
2019-04-28T13:11:16.413Z,101339.48
2019-04-28T13:13:47.078Z,101341.70
2019-04-28T13:16:17.286Z,101332.91
2019-04-28T13:18:48.338Z,101341.83
2019-04-28T13:21:18.459Z,101346.05
2019-04-28T13:23:49.071Z,101347.19
2019-04-28T13:26:19.829Z,101347.00
2019-04-28T13:28:50.341Z,101346.06
2019-04-28T13:31:20.805Z,101345.41
2019-04-28T13:33:56.300Z,101351.55
2019-04-28T13:36:23.073Z,101347.80
2019-04-28T13:38:53.497Z,101345.02
2019-04-28T13:41:23.828Z,101355.02
2019-04-28T13:43:53.608Z,101348.29
2019-04-28T13:46:23.493Z,101349.44
2019-04-28T13:48:53.690Z,101354.74
2019-04-28T13:51:23.682Z,101353.61
2019-04-28T13:53:54.500Z,101349.88
2019-04-28T13:56:24.374Z,101346.05
2019-04-28T13:59:02.635Z,101346.95
2019-04-28T14:01:51.275Z,101353.20
2019-04-28T14:04:33.653Z,101354.90
2019-04-28T14:07:22.698Z,101356.59
2019-04-28T14:09:57.206Z,101355.14
2019-04-28T14:12:27.230Z,101356.84
2019-04-28T14:14:57.738Z,101355.75
2019-04-28T14:17:28.033Z,101361.94
2019-04-28T14:19:58.770Z,101361.45
2019-04-28T14:22:29.128Z,101354.47
2019-04-28T14:24:59.263Z,101364.12
2019-04-28T14:27:30.685Z,101361.83
2019-04-28T14:30:00.700Z,101363.88
2019-04-28T14:32:30.673Z,101360.02
2019-04-28T14:35:01.192Z,101362.07
2019-04-28T14:37:31.728Z,101357.14
2019-04-28T14:40:01.843Z,101361.95
2019-04-28T14:42:32.232Z,101367.25
2019-04-28T14:45:02.191Z,101368.69
2019-04-28T14:47:33.962Z,101365.55
2019-04-28T14:50:04.400Z,101373.95
2019-04-28T14:52:34.666Z,101375.39
2019-04-28T14:55:05.056Z,101372.73
2019-04-28T14:57:34.919Z,101374.38
2019-04-28T15:00:05.128Z,101371.22
2019-04-28T15:02:47.706Z,101369.66
2019-04-28T15:05:39.065Z,101365.33
2019-04-28T15:08:20.555Z,101371.94
2019-04-28T15:11:15.364Z,101369.47
2019-04-28T15:13:45.637Z,101363.44
2019-04-28T15:16:15.581Z,101360.05
2019-04-28T15:18:45.856Z,101362.34
2019-04-28T15:21:15.913Z,101365.36
2019-04-28T15:23:45.900Z,101369.08
2019-04-28T15:26:16.360Z,101370.84
2019-04-28T15:28:49.539Z,101368.08
2019-04-28T15:31:21.137Z,101369.08
2019-04-28T15:33:52.128Z,101365.00
2019-04-28T15:39:12.289Z,101368.72
2019-04-28T15:41:42.598Z,101372.40
2019-04-28T15:44:12.563Z,101371.61
2019-04-28T15:46:42.884Z,101373.50
2019-04-28T15:49:13.129Z,101374.77
2019-04-28T15:51:43.097Z,101371.29
2019-04-28T15:54:13.670Z,101371.68
2019-04-28T15:56:46.792Z,101374.30
2019-04-28T15:59:17.658Z,101372.70
2019-04-28T16:01:47.933Z,101369.48
2019-04-28T16:04:18.427Z,101371.02
2019-04-28T16:06:49.828Z,101381.41
2019-04-28T16:09:19.693Z,101376.73
2019-04-28T16:11:49.711Z,101378.41
2019-04-28T16:14:19.684Z,101375.45
2019-04-28T16:16:50.044Z,101387.01
2019-04-28T16:19:19.913Z,101384.39
2019-04-28T16:21:51.839Z,101396.60
2019-04-28T16:24:24.473Z,101401.11
2019-04-28T16:26:54.525Z,101403.05
2019-04-28T16:29:24.878Z,101396.25
2019-04-28T16:31:55.803Z,101397.31
2019-04-28T16:34:25.830Z,101388.97
2019-04-28T16:36:55.824Z,101390.77
2019-04-28T16:39:25.803Z,101396.34
2019-04-28T16:42:06.172Z,101400.20
2019-04-28T16:44:39.111Z,101402.09
2019-04-28T16:47:11.165Z,101408.36
2019-04-28T16:49:41.466Z,101409.05
2019-04-28T16:52:14.552Z,101410.80
2019-04-28T16:54:47.186Z,101413.17
2019-04-28T16:57:28.959Z,101413.09
2019-04-28T17:00:16.909Z,101411.29
2019-04-28T17:02:52.500Z,101410.73
2019-04-28T17:05:22.718Z,101424.20
2019-04-28T17:07:53.602Z,101423.87
2019-04-28T17:10:23.602Z,101421.61
2019-04-28T17:12:55.151Z,101424.12
2019-04-28T17:15:25.170Z,101427.13
2019-04-28T17:17:55.235Z,101430.14
2019-04-28T17:20:25.194Z,101428.30
2019-04-28T17:22:55.273Z,101441.27
2019-04-28T17:25:25.341Z,101433.91
2019-04-28T17:27:55.366Z,101442.75
2019-04-28T17:30:25.618Z,101440.37
2019-04-28T17:32:55.577Z,101441.94
2019-04-28T17:35:25.785Z,101441.92
2019-04-28T17:38:06.342Z,101444.59
2019-04-28T17:40:31.883Z,101439.69
2019-04-28T17:43:04.635Z,101446.03
2019-04-28T17:45:34.544Z,101455.39
2019-04-28T17:48:13.350Z,101452.95
2019-04-28T17:50:45.351Z,101447.49
2019-04-28T17:53:15.495Z,101445.54
2019-04-28T17:55:45.816Z,101451.32
2019-04-28T17:58:16.740Z,101450.00
2019-04-28T18:01:24.515Z,101463.48
2019-04-28T18:04:43.454Z,101460.81
2019-04-28T18:07:25.317Z,101463.50
2019-04-28T18:09:56.882Z,101466.80
2019-04-28T18:12:27.515Z,101473.59
2019-04-28T18:15:06.413Z,101481.33
2019-04-28T18:17:59.284Z,101488.58
2019-04-28T18:20:29.226Z,101490.41
2019-04-28T18:22:59.137Z,101489.98
2019-04-28T18:25:29.068Z,101502.41
2019-04-28T18:27:59.180Z,101506.89
2019-04-28T18:30:31.078Z,101510.02
2019-04-28T18:33:18.887Z,101509.09
2019-04-28T18:35:51.894Z,101521.16
2019-04-28T18:38:34.810Z,101524.55
2019-04-28T18:41:33.459Z,101532.52
2019-04-28T18:44:28.538Z,101526.77
2019-04-28T18:46:58.484Z,101536.78
2019-04-28T18:49:28.420Z,101539.59
2019-04-28T18:51:58.654Z,101540.92
2019-04-28T18:54:28.604Z,101537.31
2019-04-28T18:56:58.861Z,101543.61
2019-04-28T18:59:28.842Z,101546.14
2019-04-28T19:02:16.832Z,101550.48
2019-04-28T19:04:46.792Z,101552.43
2019-04-28T19:07:20.685Z,101554.34
2019-04-28T19:09:59.042Z,101558.47
2019-04-28T19:12:54.095Z,101566.77
2019-04-28T19:16:01.836Z,101562.33
2019-04-28T19:18:35.773Z,101571.34
2019-04-28T19:21:05.816Z,101582.41
2019-04-28T19:23:37.467Z,101580.38
2019-04-28T19:26:07.323Z,101589.63
2019-04-28T19:28:37.181Z,101591.05
2019-04-28T19:31:07.124Z,101598.00
2019-04-28T19:33:37.552Z,101597.16
2019-04-28T19:36:07.401Z,101605.56
2019-04-28T19:38:37.708Z,101598.69
2019-04-28T19:41:08.049Z,101604.21
2019-04-28T19:43:38.278Z,101601.78
2019-04-28T19:46:11.209Z,101610.95
2019-04-28T19:48:41.378Z,101615.25
2019-04-28T19:51:11.220Z,101617.75
2019-04-28T19:53:41.196Z,101621.72
2019-04-28T19:56:17.535Z,101619.03
2019-04-28T19:58:57.545Z,101632.02
2019-04-28T20:01:29.633Z,101624.30
2019-04-28T20:03:59.795Z,101631.16
2019-04-28T20:06:29.573Z,101632.22
2019-04-28T20:08:59.766Z,101628.73
2019-04-28T20:11:30.470Z,101631.59
2019-04-28T20:14:00.397Z,101631.45
2019-04-28T20:16:30.339Z,101640.34
2019-04-28T20:19:00.397Z,101640.92
2019-04-28T20:21:30.395Z,101642.50
2019-04-28T20:24:00.849Z,101640.44
2019-04-28T20:26:31.166Z,101643.03
2019-04-28T20:29:01.123Z,101646.16
2019-04-28T20:31:31.240Z,101641.23
2019-04-28T20:34:01.368Z,101649.17
2019-04-28T20:36:48.643Z,101648.06
2019-04-28T20:39:26.972Z,101654.31
2019-04-28T20:41:59.103Z,101656.35
2019-04-28T20:44:29.054Z,101651.54
2019-04-28T20:46:58.949Z,101657.57
2019-04-28T20:49:29.227Z,101664.18
2019-04-28T20:51:59.080Z,101663.81
2019-04-28T20:54:28.924Z,101670.42
2019-04-28T20:56:58.854Z,101672.81
2019-04-28T20:59:28.718Z,101672.06
2019-04-28T21:01:58.538Z,101673.28
2019-04-28T21:04:28.435Z,101673.97
2019-04-28T21:06:58.607Z,101676.94
2019-04-28T21:09:28.545Z,101679.45
2019-04-28T21:11:58.788Z,101677.97
2019-04-28T21:14:28.652Z,101686.48
2019-04-28T21:16:58.589Z,101679.71
2019-04-28T21:19:28.460Z,101677.75
2019-04-28T21:21:58.298Z,101679.21
2019-04-28T21:24:28.539Z,101679.78
2019-04-28T21:26:58.484Z,101680.37
2019-04-28T21:29:28.332Z,101686.34
2019-04-28T21:31:58.352Z,101683.16
2019-04-28T21:34:28.319Z,101691.97
2019-04-28T21:36:58.108Z,101697.09
2019-04-28T21:39:28.056Z,101696.18
2019-04-28T21:41:59.164Z,101694.72
2019-04-28T21:44:39.239Z,101693.98
2019-04-28T21:47:19.071Z,101699.27
2019-04-28T21:49:49.000Z,101698.52
2019-04-28T21:52:18.896Z,101696.45
2019-04-28T21:54:48.765Z,101697.30
2019-04-28T21:57:18.546Z,101694.59
2019-04-28T21:59:48.348Z,101694.82
2019-04-28T22:02:18.285Z,101688.05
2019-04-28T22:04:48.161Z,101694.84
2019-04-28T22:07:18.054Z,101702.77
2019-04-28T22:09:48.014Z,101703.14
2019-04-28T22:12:17.949Z,101703.89
2019-04-28T22:14:48.241Z,101706.16
2019-04-28T22:17:18.020Z,101705.41
2019-04-28T22:19:47.964Z,101703.72
2019-04-28T22:22:17.909Z,101701.66
2019-04-28T22:25:09.916Z,101704.87
2019-04-28T22:27:42.080Z,101708.48
2019-04-28T22:30:12.237Z,101708.69
2019-04-28T22:32:42.475Z,101712.65
2019-04-28T22:35:12.519Z,101709.45
2019-04-28T22:37:42.379Z,101712.39
2019-04-28T22:40:13.044Z,101709.98
2019-04-28T22:42:43.030Z,101705.94
2019-04-28T22:45:13.472Z,101705.20
2019-04-28T22:47:43.414Z,101701.33
2019-04-28T22:50:41.103Z,101707.66
2019-04-28T22:53:12.614Z,101711.71
2019-04-28T22:55:47.814Z,101716.75
2019-04-28T22:58:27.034Z,101724.30
2019-04-28T23:01:19.269Z,101723.17
2019-04-28T23:03:57.232Z,101723.94
2019-04-28T23:06:27.183Z,101726.98
2019-04-28T23:08:57.313Z,101727.75
2019-04-28T23:11:27.335Z,101733.59
2019-04-28T23:13:57.257Z,101736.70
2019-04-28T23:16:27.177Z,101736.70
2019-04-28T23:18:57.892Z,101741.89
2019-04-28T23:21:45.477Z,101748.86
2019-04-28T23:24:15.422Z,101747.07
2019-04-28T23:26:45.300Z,101748.30
2019-04-28T23:29:15.160Z,101749.99
2019-04-28T23:31:45.104Z,101753.01
2019-04-28T23:34:14.881Z,101755.27
2019-04-28T23:36:44.725Z,101755.64
2019-04-28T23:39:14.659Z,101750.94
2019-04-28T23:41:59.623Z,101754.98
2019-04-28T23:44:29.557Z,101758.09
2019-04-28T23:46:59.907Z,101757.72
2019-04-28T23:49:31.004Z,101757.44
2019-04-28T23:52:16.079Z,101763.98
2019-04-28T23:54:49.348Z,101760.20
2019-04-28T23:57:19.565Z,101755.69
2019-04-28T23:59:49.511Z,101759.08
